Time;durP1;ratioP1;P1;durP2;ratioP2;P2;SDS_P1;SDS_P2;PMS_P1;PMS_P2;Temp;Humidity;BMP_temperature;BMP_pressure;BME280_temperature;BME280_humidity;BME280_pressure;Samples;Min_cycle;Max_cycle;Signal;HPM_P1;HPM_P2
2022/09/06 00:00:57;;;;;;;0.70;0.70;;;7.00;99.90;;;;;;5072893;28;20203;-64
2022/09/06 00:03:26;;;;;;;0.63;0.63;;;6.90;99.90;;;;;;5072601;28;20275;-64
2022/09/06 00:05:52;;;;;;;0.60;0.60;;;6.90;99.90;;;;;;5073004;28;20655;-64
2022/09/06 00:08:17;;;;;;;0.75;0.75;;;6.90;99.90;;;;;;5072781;28;20192;-65
2022/09/06 00:10:43;;;;;;;0.60;0.60;;;6.90;99.90;;;;;;5072744;28;20200;-64
2022/09/06 00:13:10;;;;;;;0.70;0.70;;;6.80;99.90;;;;;;5072860;28;20647;-64
2022/09/06 00:15:36;;;;;;;0.70;0.70;;;6.80;99.90;;;;;;5072593;28;20287;-64
2022/09/06 00:18:04;;;;;;;0.55;0.55;;;6.80;99.90;;;;;;5073033;28;20185;-64
2022/09/06 00:20:31;;;;;;;0.70;0.70;;;6.70;99.90;;;;;;5071257;28;20196;-64
2022/09/06 00:23:02;;;;;;;0.85;0.85;;;6.70;99.90;;;;;;5054224;28;20255;-64
2022/09/06 00:25:29;;;;;;;0.80;0.80;;;6.70;99.90;;;;;;5052308;28;20214;-65
2022/09/06 00:28:00;;;;;;;0.73;0.68;;;6.70;99.90;;;;;;5053025;28;20209;-64
2022/09/06 00:30:27;;;;;;;0.70;0.70;;;6.70;99.90;;;;;;5077390;28;20198;-64
2022/09/06 00:32:54;;;;;;;0.60;0.60;;;6.60;99.90;;;;;;5092879;28;20235;-64
2022/09/06 00:35:22;;;;;;;0.70;0.70;;;6.60;99.90;;;;;;5074466;28;20682;-65
2022/09/06 00:37:47;;;;;;;0.60;0.60;;;6.60;99.90;;;;;;5093238;28;20188;-64
2022/09/06 00:40:13;;;;;;;0.70;0.70;;;6.60;99.90;;;;;;5092910;28;20189;-64
2022/09/06 00:42:39;;;;;;;0.70;0.70;;;6.60;99.90;;;;;;5080495;28;20227;-64
2022/09/06 00:45:06;;;;;;;0.70;0.70;;;6.60;99.90;;;;;;5072835;28;20189;-65
2022/09/06 00:47:34;;;;;;;0.70;0.70;;;6.50;99.90;;;;;;5072409;28;20195;-63
2022/09/06 00:50:02;;;;;;;0.80;0.80;;;6.50;99.90;;;;;;5072225;28;20306;-64
2022/09/06 00:52:29;;;;;;;0.70;0.70;;;6.50;99.90;;;;;;5072285;28;20193;-66
2022/09/06 00:54:55;;;;;;;0.70;0.70;;;6.50;99.90;;;;;;5072849;28;20698;-64
2022/09/06 00:57:25;;;;;;;0.60;0.60;;;6.40;99.90;;;;;;5073673;28;20192;-65
2022/09/06 00:59:53;;;;;;;0.70;0.70;;;6.40;99.90;;;;;;5075999;28;20254;-64
2022/09/06 01:02:19;;;;;;;0.70;0.70;;;6.40;99.90;;;;;;5076589;28;20193;-64
2022/09/06 01:04:47;;;;;;;0.70;0.70;;;6.40;99.90;;;;;;5076149;28;20647;-64
2022/09/06 01:07:18;;;;;;;0.60;0.60;;;6.40;99.90;;;;;;5074535;28;20226;-64
2022/09/06 01:09:54;;;;;;;0.70;0.70;;;6.40;99.90;;;;;;5076218;28;20656;-63
2022/09/06 01:12:35;;;;;;;0.70;0.70;;;6.40;99.90;;;;;;5075992;28;20192;-64
2022/09/06 01:15:28;;;;;;;0.60;0.60;;;6.40;99.90;;;;;;5076003;28;20200;-63
2022/09/06 01:17:56;;;;;;;0.70;0.70;;;6.40;99.90;;;;;;5075717;28;20235;-63
2022/09/06 01:20:44;;;;;;;0.95;0.95;;;6.30;99.90;;;;;;5057990;28;20196;-64
2022/09/06 01:23:43;;;;;;;0.60;0.60;;;6.30;99.90;;;;;;5075627;28;20250;-64
2022/09/06 01:26:30;;;;;;;0.60;0.60;;;6.30;99.90;;;;;;5076054;28;20557;-63
2022/09/06 01:28:57;;;;;;;0.70;0.70;;;6.30;99.90;;;;;;5075664;28;20280;-63
2022/09/06 01:31:44;;;;;;;0.70;0.70;;;6.30;99.90;;;;;;5075172;28;20564;-64
2022/09/06 01:34:30;;;;;;;0.93;0.93;;;6.30;99.90;;;;;;5075088;28;20287;-63
2022/09/06 01:37:01;;;;;;;0.60;0.60;;;6.40;99.90;;;;;;5075167;28;20655;-63
2022/09/06 01:39:33;;;;;;;0.60;0.60;;;6.40;99.90;;;;;;5074746;28;20564;-64
2022/09/06 01:42:08;;;;;;;0.70;0.70;;;6.50;99.90;;;;;;5068918;28;20671;-63
2022/09/06 01:44:36;;;;;;;0.60;0.60;;;6.50;99.90;;;;;;5054705;28;20193;-64
2022/09/06 01:47:13;;;;;;;0.60;0.60;;;6.50;99.90;;;;;;5071488;28;20207;-64
2022/09/06 01:50:08;;;;;;;0.60;0.60;;;6.60;99.90;;;;;;5074700;28;20196;-64
2022/09/06 01:52:52;;;;;;;0.63;0.63;;;6.60;99.90;;;;;;5074936;28;20221;-64
2022/09/06 01:56:08;;;;;;;0.70;0.70;;;6.60;99.90;;;;;;5074778;28;20209;-64
2022/09/06 01:58:34;;;;;;;0.70;0.70;;;6.50;99.90;;;;;;5040487;28;20205;-64
2022/09/06 02:01:08;;;;;;;0.70;0.70;;;6.50;99.90;;;;;;5073520;28;20188;-64
2022/09/06 02:03:46;;;;;;;0.80;0.80;;;6.60;99.90;;;;;;5074806;28;20672;-63
2022/09/06 02:06:17;;;;;;;0.80;0.80;;;6.50;99.90;;;;;;5074943;28;20189;-63
2022/09/06 02:08:50;;;;;;;0.70;0.70;;;6.50;99.90;;;;;;5074214;28;20244;-62
2022/09/06 02:11:16;;;;;;;0.75;0.75;;;6.60;99.90;;;;;;5074887;28;20527;-64
2022/09/06 02:13:51;;;;;;;0.70;0.70;;;6.60;99.90;;;;;;5074452;28;20203;-64
2022/09/06 02:16:23;;;;;;;0.60;0.60;;;6.60;99.90;;;;;;5074665;28;20208;-63
2022/09/06 02:19:19;;;;;;;0.70;0.70;;;6.60;99.90;;;;;;5074877;28;20193;-63
2022/09/06 02:21:46;;;;;;;0.70;0.70;;;6.60;99.90;;;;;;5074675;28;20541;-62
2022/09/06 02:24:22;;;;;;;0.80;0.80;;;6.70;99.90;;;;;;5074509;28;20215;-64
2022/09/06 02:26:48;;;;;;;0.63;0.63;;;6.70;99.90;;;;;;5074652;28;20662;-64
2022/09/06 02:29:15;;;;;;;0.70;0.70;;;6.80;99.90;;;;;;5085735;28;20223;-64
2022/09/06 02:31:49;;;;;;;0.70;0.70;;;6.80;99.90;;;;;;5094598;28;20700;-64
2022/09/06 02:34:17;;;;;;;1.25;1.15;;;6.80;99.90;;;;;;5092085;28;20250;-63
2022/09/06 02:36:43;;;;;;;0.60;0.60;;;6.90;99.90;;;;;;5073672;28;20279;-63
2022/09/06 02:39:09;;;;;;;0.60;0.60;;;6.90;99.90;;;;;;5073788;28;20266;-64
2022/09/06 02:41:35;;;;;;;0.80;0.80;;;6.90;99.90;;;;;;5072813;28;20221;-63
2022/09/06 02:44:01;;;;;;;0.63;0.63;;;6.90;99.90;;;;;;5074070;28;20655;-64
2022/09/06 02:46:27;;;;;;;1.58;1.42;;;7.00;99.90;;;;;;5072199;28;20193;-63
2022/09/06 02:48:52;;;;;;;0.70;0.70;;;7.00;99.90;;;;;;5073668;28;20199;-63
2022/09/06 02:51:19;;;;;;;0.70;0.70;;;6.90;99.90;;;;;;5073576;28;20197;-63
2022/09/06 02:53:45;;;;;;;0.70;0.70;;;6.90;99.90;;;;;;5073890;28;20197;-63
2022/09/06 02:56:11;;;;;;;0.70;0.70;;;6.90;99.90;;;;;;5073471;28;20254;-64
2022/09/06 02:58:37;;;;;;;0.70;0.70;;;6.80;99.90;;;;;;5073356;28;20199;-64
2022/09/06 03:01:03;;;;;;;0.70;0.70;;;6.70;99.90;;;;;;5073177;28;20279;-64
2022/09/06 03:03:28;;;;;;;0.80;0.80;;;6.60;99.90;;;;;;5063532;28;20488;-64
2022/09/06 03:05:54;;;;;;;0.73;0.73;;;6.60;99.90;;;;;;5053453;28;20189;-63
2022/09/06 03:08:22;;;;;;;0.68;0.68;;;6.50;99.90;;;;;;5053113;28;20208;-64
2022/09/06 03:10:54;;;;;;;0.95;0.95;;;6.40;99.90;;;;;;5062783;28;20216;-63
2022/09/06 03:13:24;;;;;;;0.70;0.70;;;6.30;99.90;;;;;;5072944;28;20193;-64
2022/09/06 03:15:51;;;;;;;0.70;0.70;;;6.30;99.90;;;;;;5073144;28;20228;-65
2022/09/06 03:18:16;;;;;;;0.63;0.63;;;6.20;99.90;;;;;;5073206;28;20547;-64
2022/09/06 03:20:42;;;;;;;1.88;1.77;;;6.10;99.90;;;;;;5089457;28;20198;-64
2022/09/06 03:23:08;;;;;;;0.95;0.95;;;6.10;99.90;;;;;;5093369;28;20655;-64
2022/09/06 03:25:34;;;;;;;0.90;0.90;;;6.00;99.90;;;;;;5093328;28;20196;-63
2022/09/06 03:28:00;;;;;;;0.70;0.70;;;5.90;99.90;;;;;;5093042;28;20192;-63
2022/09/06 03:30:25;;;;;;;0.80;0.80;;;5.90;99.90;;;;;;5091126;28;20200;-63
2022/09/06 03:32:51;;;;;;;0.80;0.80;;;5.80;99.90;;;;;;5072989;28;20195;-63
2022/09/06 03:35:17;;;;;;;0.70;0.70;;;5.80;99.90;;;;;;5072775;28;20213;-63
2022/09/06 03:37:43;;;;;;;0.70;0.70;;;5.70;99.90;;;;;;5072500;28;20193;-63
2022/09/06 03:40:09;;;;;;;0.80;0.80;;;5.70;99.90;;;;;;5072906;28;20189;-63
2022/09/06 03:42:35;;;;;;;0.70;0.70;;;5.70;99.90;;;;;;5072653;28;20334;-63
2022/09/06 03:45:00;;;;;;;0.70;0.70;;;5.70;99.90;;;;;;5072852;28;20700;-63
2022/09/06 03:47:26;;;;;;;0.70;0.70;;;5.60;99.90;;;;;;5072502;28;20563;-64
2022/09/06 03:49:52;;;;;;;0.70;0.70;;;5.60;99.90;;;;;;5072818;28;20303;-64
2022/09/06 03:52:17;;;;;;;0.60;0.60;;;5.60;99.90;;;;;;5054683;28;20238;-64
2022/09/06 03:54:43;;;;;;;0.85;0.85;;;5.50;99.90;;;;;;5072608;28;20236;-64
2022/09/06 03:57:09;;;;;;;0.70;0.70;;;5.50;99.90;;;;;;5072675;28;20589;-64
2022/09/06 03:59:35;;;;;;;0.68;0.68;;;5.40;99.90;;;;;;5072544;28;20188;-63
2022/09/06 04:02:01;;;;;;;0.80;0.80;;;5.40;99.90;;;;;;5054631;28;20189;-63
2022/09/06 04:04:27;;;;;;;0.70;0.70;;;5.40;99.90;;;;;;5072423;28;20623;-63
2022/09/06 04:06:52;;;;;;;0.70;0.70;;;5.40;99.90;;;;;;5072530;28;20209;-63
2022/09/06 04:09:18;;;;;;;0.70;0.70;;;5.40;99.90;;;;;;5072580;28;20193;-64
2022/09/06 04:11:43;;;;;;;0.70;0.70;;;5.40;99.90;;;;;;5072517;28;20201;-63
2022/09/06 04:14:09;;;;;;;0.70;0.70;;;5.40;99.90;;;;;;5072584;28;20206;-64
2022/09/06 04:16:35;;;;;;;0.88;0.88;;;5.40;99.90;;;;;;5072154;28;20227;-63
2022/09/06 04:19:02;;;;;;;0.60;0.60;;;5.40;99.90;;;;;;5054582;28;20235;-63
2022/09/06 04:21:28;;;;;;;0.70;0.70;;;5.40;99.90;;;;;;5054187;28;20189;-63
2022/09/06 04:23:54;;;;;;;0.60;0.60;;;5.30;99.90;;;;;;5072454;28;20275;-63
2022/09/06 04:26:19;;;;;;;0.60;0.60;;;5.30;99.90;;;;;;5072196;28;20280;-62
2022/09/06 04:28:45;;;;;;;0.70;0.70;;;5.40;99.90;;;;;;5072122;28;20690;-63
2022/09/06 04:31:11;;;;;;;0.60;0.60;;;5.40;99.90;;;;;;5072319;28;20669;-65
2022/09/06 04:33:37;;;;;;;0.55;0.55;;;5.40;99.90;;;;;;5057871;28;20201;-63
2022/09/06 04:36:08;;;;;;;0.70;0.70;;;5.40;99.90;;;;;;5057297;28;20216;-64
2022/09/06 04:38:36;;;;;;;0.70;0.70;;;5.40;99.90;;;;;;5056013;28;20663;-62
2022/09/06 04:41:03;;;;;;;0.70;0.70;;;5.40;99.90;;;;;;5056139;28;20201;-63
2022/09/06 04:43:29;;;;;;;0.70;0.70;;;5.40;99.90;;;;;;5074157;28;20585;-63
2022/09/06 04:45:54;;;;;;;0.70;0.70;;;5.40;99.90;;;;;;5075942;28;20188;-63
2022/09/06 04:48:20;;;;;;;0.70;0.70;;;5.50;99.90;;;;;;5075763;28;20196;-63
2022/09/06 04:50:45;;;;;;;0.70;0.70;;;5.50;99.90;;;;;;5075893;28;20276;-63
2022/09/06 04:53:11;;;;;;;0.70;0.70;;;5.50;99.90;;;;;;5076106;28;20193;-63
2022/09/06 04:55:37;;;;;;;0.70;0.70;;;5.50;99.90;;;;;;5075626;28;20208;-63
2022/09/06 04:58:04;;;;;;;0.70;0.70;;;5.50;99.90;;;;;;5075738;28;20196;-63
2022/09/06 05:00:32;;;;;;;0.70;0.70;;;5.50;99.90;;;;;;5075514;28;20189;-63
2022/09/06 05:02:57;;;;;;;0.60;0.60;;;5.50;99.90;;;;;;5068871;28;20205;-63
2022/09/06 05:05:23;;;;;;;0.65;0.65;;;5.60;99.90;;;;;;5055723;28;20307;-63
2022/09/06 05:07:53;;;;;;;0.77;0.77;;;5.70;99.90;;;;;;5055665;28;20331;-62
2022/09/06 05:10:20;;;;;;;0.70;0.70;;;5.80;99.90;;;;;;5054169;28;20205;-64
2022/09/06 05:12:50;;;;;;;0.70;0.70;;;5.90;99.90;;;;;;5055495;28;20193;-63
2022/09/06 05:15:16;;;;;;;0.70;0.70;;;6.00;99.90;;;;;;5055408;28;20668;-63
2022/09/06 05:17:42;;;;;;;0.70;0.70;;;6.10;99.90;;;;;;5055281;28;20197;-63
2022/09/06 05:20:09;;;;;;;0.80;0.80;;;6.10;99.90;;;;;;5055435;28;20181;-63
2022/09/06 05:22:35;;;;;;;0.70;0.70;;;6.20;99.90;;;;;;5055078;28;20218;-63
2022/09/06 05:25:00;;;;;;;0.70;0.70;;;6.30;99.90;;;;;;5074264;28;20725;-63
2022/09/06 05:27:26;;;;;;;0.70;0.70;;;6.50;99.90;;;;;;5075083;28;20208;-63
2022/09/06 05:29:52;;;;;;;0.70;0.70;;;6.60;99.90;;;;;;5074941;28;20582;-64
2022/09/06 05:32:17;;;;;;;0.70;0.70;;;6.70;99.90;;;;;;5056251;28;20216;-63
2022/09/06 05:34:43;;;;;;;0.70;0.70;;;6.80;99.90;;;;;;5054891;28;20777;-63
2022/09/06 05:37:09;;;;;;;0.60;0.60;;;7.00;99.90;;;;;;5055025;28;20190;-63
2022/09/06 05:39:34;;;;;;;0.70;0.70;;;7.10;99.90;;;;;;5054853;28;20264;-63
2022/09/06 05:42:05;;;;;;;0.73;0.73;;;7.20;99.90;;;;;;5061042;28;20193;-63
2022/09/06 05:44:34;;;;;;;0.68;0.68;;;7.30;99.90;;;;;;5073649;28;20221;-64
2022/09/06 05:47:00;;;;;;;1.42;0.93;;;7.40;99.90;;;;;;5074879;28;20269;-63
2022/09/06 05:49:28;;;;;;;0.70;0.70;;;7.60;99.90;;;;;;5074478;28;20779;-64
2022/09/06 05:51:53;;;;;;;0.70;0.70;;;7.70;99.90;;;;;;5074827;28;20201;-63
2022/09/06 05:54:19;;;;;;;0.60;0.60;;;7.80;99.90;;;;;;5074559;28;20283;-64
2022/09/06 05:56:45;;;;;;;0.80;0.80;;;7.90;99.90;;;;;;5056783;28;20283;-64
2022/09/06 05:59:10;;;;;;;1.50;1.00;;;8.00;99.90;;;;;;5074573;28;20223;-64
2022/09/06 06:01:36;;;;;;;0.70;0.70;;;8.10;99.90;;;;;;5074371;28;20542;-63
2022/09/06 06:04:06;;;;;;;0.70;0.70;;;8.20;99.90;;;;;;5074675;28;20193;-64
2022/09/06 06:06:33;;;;;;;0.60;0.60;;;8.30;99.90;;;;;;5056369;28;20284;-63
2022/09/06 06:08:59;;;;;;;0.70;0.70;;;8.50;99.90;;;;;;5088194;28;20325;-63
2022/09/06 06:11:26;;;;;;;0.65;0.65;;;8.60;99.90;;;;;;5094480;28;20664;-64
2022/09/06 06:13:53;;;;;;;0.60;0.60;;;8.80;99.90;;;;;;5094699;28;20646;-64
2022/09/06 06:16:21;;;;;;;0.60;0.60;;;8.90;99.90;;;;;;5094396;28;20223;-64
2022/09/06 06:18:46;;;;;;;0.70;0.68;;;9.10;99.90;;;;;;5094510;28;20200;-64
2022/09/06 06:21:15;;;;;;;1.20;1.05;;;9.20;99.90;;;;;;5075679;28;20203;-64
2022/09/06 06:23:42;;;;;;;0.95;0.80;;;9.30;99.90;;;;;;5074352;28;20242;-64
2022/09/06 06:26:09;;;;;;;0.60;0.60;;;9.50;99.90;;;;;;5074009;28;20192;-64
2022/09/06 06:28:36;;;;;;;1.30;0.95;;;9.60;99.90;;;;;;5079467;28;20259;-64
2022/09/06 06:31:07;;;;;;;0.70;0.70;;;9.80;99.90;;;;;;5094225;28;20188;-64
2022/09/06 06:33:35;;;;;;;1.75;1.13;;;9.90;99.90;;;;;;5094052;28;20275;-64
2022/09/06 06:36:00;;;;;;;1.35;1.25;;;10.10;99.90;;;;;;5094036;28;20579;-64
2022/09/06 06:38:37;;;;;;;0.70;0.70;;;10.30;99.90;;;;;;5075668;28;20192;-64
2022/09/06 06:41:04;;;;;;;2.42;1.17;;;10.40;99.90;;;;;;5094134;28;20581;-64
2022/09/06 06:43:35;;;;;;;0.60;0.60;;;10.60;99.90;;;;;;5074785;28;20599;-64
2022/09/06 06:46:16;;;;;;;0.65;0.65;;;10.70;99.90;;;;;;5073668;28;20726;-64
2022/09/06 06:48:43;;;;;;;0.63;0.63;;;10.80;99.90;;;;;;5073559;28;20188;-64
2022/09/06 06:51:11;;;;;;;0.98;0.88;;;10.90;99.90;;;;;;5073697;28;20556;-64
2022/09/06 06:53:37;;;;;;;1.38;1.27;;;10.90;99.90;;;;;;5073473;28;20742;-64
2022/09/06 06:56:21;;;;;;;0.60;0.60;;;11.00;99.90;;;;;;5073124;28;20295;-65
2022/09/06 06:58:48;;;;;;;0.82;0.82;;;11.20;99.90;;;;;;5073496;28;20189;-64
2022/09/06 07:01:15;;;;;;;0.70;0.70;;;11.30;99.90;;;;;;5073370;28;20710;-66
2022/09/06 07:03:41;;;;;;;0.60;0.60;;;11.60;99.90;;;;;;5073165;28;20192;-64
2022/09/06 07:06:08;;;;;;;0.73;0.73;;;11.80;99.90;;;;;;5073342;28;20238;-64
2022/09/06 07:08:36;;;;;;;1.70;1.00;;;12.00;99.90;;;;;;5073128;28;20196;-64
2022/09/06 07:11:03;;;;;;;0.75;0.73;;;12.10;99.90;;;;;;5073259;28;20215;-64
2022/09/06 07:13:30;;;;;;;1.67;0.90;;;12.40;99.90;;;;;;5073123;28;20195;-64
2022/09/06 07:16:18;;;;;;;1.35;1.25;;;12.60;99.90;;;;;;5072973;28;20239;-64
2022/09/06 07:18:44;;;;;;;0.45;0.45;;;12.80;99.90;;;;;;5073160;28;20224;-65
2022/09/06 07:21:17;;;;;;;0.50;0.50;;;12.90;99.90;;;;;;5073054;28;20193;-64
2022/09/06 07:23:43;;;;;;;0.60;0.60;;;13.00;99.90;;;;;;5082721;28;20184;-64
2022/09/06 07:26:18;;;;;;;0.60;0.60;;;13.20;99.90;;;;;;5093287;28;20295;-65
2022/09/06 07:28:45;;;;;;;0.52;0.52;;;13.40;99.90;;;;;;5092822;28;20654;-65
2022/09/06 07:31:11;;;;;;;0.73;0.73;;;13.60;99.90;;;;;;5093173;28;20218;-65
2022/09/06 07:33:38;;;;;;;0.68;0.68;;;13.80;99.90;;;;;;5075285;28;20579;-64
2022/09/06 07:36:07;;;;;;;0.50;0.50;;;14.00;99.90;;;;;;5092991;28;20247;-65
2022/09/06 07:38:34;;;;;;;0.50;0.50;;;14.10;99.90;;;;;;5074817;28;20313;-64
2022/09/06 07:41:01;;;;;;;0.55;0.55;;;14.30;99.90;;;;;;5075044;28;20768;-64
2022/09/06 07:43:27;;;;;;;0.60;0.60;;;14.50;99.90;;;;;;5074017;28;20197;-65
2022/09/06 07:46:02;;;;;;;1.52;1.02;;;14.70;99.90;;;;;;5072907;28;20211;-65
2022/09/06 07:48:30;;;;;;;1.00;0.57;;;14.90;99.90;;;;;;5072687;28;20581;-65
2022/09/06 07:51:02;;;;;;;0.75;0.75;;;15.10;99.90;;;;;;5054696;28;20647;-65
2022/09/06 07:53:28;;;;;;;0.50;0.50;;;15.30;99.90;;;;;;5072634;28;20677;-65
2022/09/06 07:55:53;;;;;;;0.47;0.47;;;15.50;99.90;;;;;;5072680;28;20248;-65
2022/09/06 07:58:19;;;;;;;0.60;0.60;;;15.60;99.90;;;;;;5072652;28;20217;-66
2022/09/06 08:00:44;;;;;;;0.57;0.57;;;15.80;99.90;;;;;;5072575;28;20193;-64
2022/09/06 08:03:10;;;;;;;0.40;0.40;;;16.00;99.90;;;;;;5072687;28;20193;-65
2022/09/06 08:05:36;;;;;;;0.50;0.50;;;16.30;99.90;;;;;;5072438;28;20195;-65
2022/09/06 08:08:02;;;;;;;0.93;0.80;;;16.50;99.90;;;;;;5075690;28;20199;-65
2022/09/06 08:10:27;;;;;;;0.40;0.40;;;16.50;99.90;;;;;;5058652;28;20201;-65
2022/09/06 08:12:54;;;;;;;0.30;0.30;;;16.70;99.90;;;;;;5076642;28;20214;-65
2022/09/06 08:15:20;;;;;;;0.45;0.45;;;16.90;99.90;;;;;;5076611;28;20200;-66
2022/09/06 08:17:49;;;;;;;0.30;0.30;;;17.10;99.90;;;;;;5076681;28;20655;-65
2022/09/06 08:20:16;;;;;;;0.30;0.30;;;17.00;99.90;;;;;;5070415;28;20628;-65
2022/09/06 08:22:42;;;;;;;0.43;0.43;;;17.00;99.90;;;;;;5096744;28;20180;-64
2022/09/06 08:25:09;;;;;;;0.40;0.40;;;17.10;99.90;;;;;;5096882;28;20533;-65
2022/09/06 08:27:35;;;;;;;0.30;0.30;;;17.40;99.90;;;;;;5078367;28;20207;-66
2022/09/06 08:30:01;;;;;;;0.50;0.50;;;17.50;99.90;;;;;;5096407;28;20751;-65
2022/09/06 08:32:27;;;;;;;1.85;0.80;;;17.70;99.90;;;;;;5078350;28;20200;-65
2022/09/06 08:34:52;;;;;;;0.35;0.35;;;18.00;99.90;;;;;;5078213;28;20216;-66
2022/09/06 08:37:18;;;;;;;5.45;0.63;;;18.00;99.90;;;;;;5096511;28;20204;-67
2022/09/06 08:39:43;;;;;;;0.30;0.30;;;18.20;99.90;;;;;;5096900;28;20224;-64
2022/09/06 08:42:11;;;;;;;0.40;0.40;;;18.20;99.90;;;;;;5088564;28;20216;-65
2022/09/06 08:44:42;;;;;;;0.60;0.45;;;18.40;99.90;;;;;;5058167;28;20570;-65
2022/09/06 08:47:09;;;;;;;0.32;0.32;;;18.50;99.90;;;;;;5058493;28;20617;-66
2022/09/06 08:49:44;;;;;;;0.45;0.45;;;18.60;99.90;;;;;;5055931;28;20204;-65
2022/09/06 08:52:25;;;;;;;0.68;0.50;;;18.70;99.90;;;;;;5056244;28;20200;-66
2022/09/06 08:55:04;;;;;;;0.30;0.30;;;18.90;99.90;;;;;;5056058;28;20209;-66
2022/09/06 08:57:44;;;;;;;0.20;0.20;;;19.00;99.90;;;;;;5067265;28;20242;-65
2022/09/06 09:00:12;;;;;;;0.40;0.30;;;19.10;99.90;;;;;;5076008;28;20188;-66
2022/09/06 09:02:54;;;;;;;0.30;0.30;;;19.20;99.90;;;;;;5075708;28;20204;-65
2022/09/06 09:05:31;;;;;;;0.40;0.40;;;19.40;99.90;;;;;;5075654;28;20250;-67
2022/09/06 09:08:01;;;;;;;0.57;0.47;;;19.70;99.90;;;;;;5075814;28;20186;-65
2022/09/06 09:10:29;;;;;;;0.38;0.38;;;20.00;99.90;;;;;;5075782;28;20300;-66
2022/09/06 09:12:56;;;;;;;2.28;0.90;;;20.10;99.90;;;;;;5075969;28;20197;-66
2022/09/06 09:15:22;;;;;;;3.30;0.50;;;20.20;99.90;;;;;;5077933;28;20211;-66
2022/09/06 09:17:50;;;;;;;0.63;0.45;;;20.30;99.90;;;;;;5095956;28;20542;-66
2022/09/06 09:20:16;;;;;;;0.30;0.30;;;20.60;99.90;;;;;;5095945;28;20199;-66
2022/09/06 09:22:43;;;;;;;0.20;0.20;;;20.80;99.90;;;;;;5095816;28;20192;-66
2022/09/06 09:25:18;;;;;;;0.50;0.40;;;21.00;99.90;;;;;;5095996;28;20191;-65
2022/09/06 09:27:45;;;;;;;0.30;0.30;;;20.80;99.90;;;;;;5095800;28;20206;-66
2022/09/06 09:30:11;;;;;;;0.65;0.50;;;21.00;99.90;;;;;;5095306;28;20331;-66
2022/09/06 09:32:39;;;;;;;0.47;0.47;;;21.00;99.90;;;;;;5077475;28;20659;-66
2022/09/06 09:35:19;;;;;;;0.30;0.30;;;20.90;99.90;;;;;;5095429;28;20200;-65
2022/09/06 09:37:46;;;;;;;0.40;0.40;;;21.00;99.90;;;;;;5095577;28;20206;-66
2022/09/06 09:40:24;;;;;;;0.30;0.30;;;21.40;99.90;;;;;;5095184;28;20291;-66
2022/09/06 09:42:50;;;;;;;0.20;0.20;;;21.70;99.90;;;;;;5081761;28;20193;-66
2022/09/06 09:45:28;;;;;;;0.35;0.35;;;21.70;99.90;;;;;;5074905;28;20209;-66
2022/09/06 09:47:54;;;;;;;0.55;0.30;;;21.70;99.90;;;;;;5074934;28;20203;-65
2022/09/06 09:50:29;;;;;;;0.30;0.30;;;22.00;99.90;;;;;;5074920;28;20284;-66
2022/09/06 09:53:06;;;;;;;0.20;0.20;;;22.40;99.90;;;;;;5074626;28;20199;-66
2022/09/06 09:55:31;;;;;;;0.30;0.30;;;22.40;99.90;;;;;;5074686;28;20222;-66
2022/09/06 09:57:58;;;;;;;0.20;0.20;;;22.30;99.90;;;;;;5057052;28;20284;-66
2022/09/06 10:00:38;;;;;;;0.20;0.20;;;22.50;99.90;;;;;;5056569;28;20636;-66
2022/09/06 10:03:21;;;;;;;0.20;0.20;;;22.60;99.90;;;;;;5074916;28;20563;-66
2022/09/06 10:05:56;;;;;;;0.17;0.17;;;22.40;99.90;;;;;;5056645;28;20541;-65
2022/09/06 10:08:24;;;;;;;0.20;0.20;;;22.70;99.90;;;;;;5074676;28;20226;-65
2022/09/06 10:10:50;;;;;;;0.30;0.30;;;22.90;99.90;;;;;;5074739;28;20193;-66
2022/09/06 10:13:23;;;;;;;0.40;0.40;;;23.10;99.90;;;;;;5090718;28;20626;-65
2022/09/06 10:15:51;;;;;;;0.28;0.28;;;23.00;99.90;;;;;;5094687;28;20205;-66
2022/09/06 10:18:41;;;;;;;0.20;0.20;;;23.10;99.90;;;;;;5094742;28;20193;-66
2022/09/06 10:21:11;;;;;;;0.40;0.40;;;23.10;99.90;;;;;;5094539;28;20642;-68
2022/09/06 10:23:55;;;;;;;0.30;0.30;;;23.30;99.90;;;;;;5094551;28;20191;-66
2022/09/06 10:26:27;;;;;;;0.35;0.35;;;23.30;99.90;;;;;;5094883;28;20196;-67
2022/09/06 10:28:59;;;;;;;0.28;0.28;;;23.60;99.90;;;;;;5094431;28;20695;-66
2022/09/06 10:31:28;;;;;;;0.30;0.30;;;23.70;99.90;;;;;;5083709;28;20279;-66
2022/09/06 10:33:56;;;;;;;0.30;0.30;;;24.10;99.90;;;;;;5073873;28;20189;-66
2022/09/06 10:36:35;;;;;;;0.28;0.25;;;23.90;99.90;;;;;;5073545;28;20792;-66
2022/09/06 10:39:26;;;;;;;0.50;0.50;;;23.90;99.90;;;;;;5073973;28;20239;-66
2022/09/06 10:42:12;;;;;;;0.20;0.20;;;24.10;99.90;;;;;;5059695;28;20650;-66
2022/09/06 10:45:01;;;;;;;0.90;0.50;;;23.40;99.90;;;;;;5073062;28;20251;-66
2022/09/06 10:47:37;;;;;;;0.20;0.20;;;23.60;99.90;;;;;;5073471;28;20196;-67
2022/09/06 10:50:04;;;;;;;0.20;0.20;;;23.50;99.90;;;;;;5073550;28;20682;-67
2022/09/06 10:52:43;;;;;;;0.80;0.40;;;23.60;99.90;;;;;;5073542;28;20189;-67
2022/09/06 10:55:15;;;;;;;0.20;0.20;;;23.60;99.90;;;;;;5073528;28;20208;-67
2022/09/06 10:57:44;;;;;;;0.10;0.10;;;24.00;99.90;;;;;;5073360;28;20193;-67
2022/09/06 11:00:12;;;;;;;0.40;0.40;;;24.40;99.90;;;;;;5073474;28;20208;-67
2022/09/06 11:02:57;;;;;;;0.52;0.30;;;24.50;99.90;;;;;;5073121;28;20300;-66
2022/09/06 11:05:31;;;;;;;0.13;0.13;;;24.60;99.90;;;;;;5073219;28;20287;-67
2022/09/06 11:08:03;;;;;;;0.20;0.20;;;24.70;97.80;;;;;;5076781;28;20274;-67
2022/09/06 11:10:44;;;;;;;0.28;0.28;;;24.70;99.90;;;;;;5093525;28;20257;-67
2022/09/06 11:13:15;;;;;;;0.20;0.20;;;25.00;99.90;;;;;;5093624;28;20670;-66
2022/09/06 11:15:47;;;;;;;0.30;0.30;;;24.90;99.70;;;;;;5075094;28;20215;-67
2022/09/06 11:18:21;;;;;;;0.10;0.10;;;25.00;99.90;;;;;;5093516;28;20215;-67
2022/09/06 11:21:08;;;;;;;0.20;0.20;;;25.00;98.90;;;;;;5093339;28;20471;-65
2022/09/06 11:23:50;;;;;;;0.20;0.20;;;24.80;99.60;;;;;;5093315;28;20574;-65
2022/09/06 11:26:44;;;;;;;0.45;0.20;;;24.90;97.50;;;;;;5093169;28;20196;-65
2022/09/06 11:29:19;;;;;;;0.10;0.10;;;23.80;99.00;;;;;;5071243;28;20253;-66
2022/09/06 11:32:00;;;;;;;0.10;0.10;;;23.70;99.40;;;;;;5072999;28;20647;-65
2022/09/06 11:34:29;;;;;;;0.35;0.30;;;24.30;99.40;;;;;;5072507;28;20222;-65
2022/09/06 11:36:57;;;;;;;0.43;0.30;;;24.20;95.70;;;;;;5072799;28;20723;-66
2022/09/06 11:39:35;;;;;;;0.10;0.10;;;24.30;96.90;;;;;;5072725;28;20304;-65
2022/09/06 11:42:01;;;;;;;0.10;0.10;;;24.50;95.50;;;;;;5071787;28;20280;-65
2022/09/06 11:44:49;;;;;;;0.20;0.20;;;24.40;96.30;;;;;;5072596;28;20191;-66
2022/09/06 11:47:40;;;;;;;0.17;0.17;;;24.50;97.40;;;;;;5072541;28;20620;-65
2022/09/06 11:50:24;;;;;;;0.60;0.35;;;24.60;97.70;;;;;;5072870;28;20185;-66
2022/09/06 11:53:06;;;;;;;0.20;0.20;;;24.70;96.30;;;;;;5054722;28;20202;-68
2022/09/06 11:55:40;;;;;;;0.10;0.10;;;24.80;96.30;;;;;;5054656;28;20288;-65
2022/09/06 11:58:50;;;;;;;0.20;0.20;;;25.00;95.50;;;;;;5072653;28;20230;-66
2022/09/06 12:01:17;;;;;;;0.10;0.10;;;25.00;96.80;;;;;;5038774;28;20205;-65
2022/09/06 12:03:52;;;;;;;0.10;0.10;;;25.10;95.50;;;;;;5072704;28;20239;-65
2022/09/06 12:06:22;;;;;;;0.30;0.30;;;25.20;94.30;;;;;;5051506;28;20197;-65
2022/09/06 12:08:52;;;;;;;0.15;0.15;;;25.40;94.40;;;;;;5052634;28;20555;-65
2022/09/06 12:11:42;;;;;;;0.20;0.20;;;25.30;94.20;;;;;;5034801;28;20696;-66
2022/09/06 12:14:35;;;;;;;0.10;0.10;;;25.40;94.80;;;;;;5034986;28;20201;-65
2022/09/06 12:17:03;;;;;;;0.20;0.20;;;25.40;94.10;;;;;;5052584;28;20208;-65
2022/09/06 12:19:44;;;;;;;0.20;0.20;;;25.20;93.30;;;;;;5052672;28;20196;-65
2022/09/06 12:22:28;;;;;;;1.10;0.40;;;25.50;94.60;;;;;;5052469;28;20656;-66
2022/09/06 12:25:12;;;;;;;0.20;0.20;;;25.80;93.40;;;;;;5071780;28;20285;-66
2022/09/06 12:27:49;;;;;;;0.10;0.10;;;25.60;93.80;;;;;;5054607;28;20200;-66
2022/09/06 12:30:29;;;;;;;0.55;0.40;;;26.00;93.60;;;;;;5072312;28;20228;-66
2022/09/06 12:32:54;;;;;;;1.65;0.43;;;25.90;93.10;;;;;;5072624;28;20209;-66
2022/09/06 12:35:25;;;;;;;0.30;0.30;;;26.00;92.60;;;;;;5072304;28;20197;-66
2022/09/06 12:37:54;;;;;;;0.20;0.20;;;26.00;92.10;;;;;;5072678;28;20723;-66
2022/09/06 12:40:22;;;;;;;0.15;0.15;;;25.30;93.50;;;;;;5054559;28;20256;-65
2022/09/06 12:42:50;;;;;;;0.17;0.17;;;24.80;92.00;;;;;;5072399;28;20276;-65
2022/09/06 12:45:17;;;;;;;0.22;0.22;;;24.10;92.60;;;;;;5072295;28;20193;-65
2022/09/06 12:47:44;;;;;;;0.20;0.20;;;23.80;94.60;;;;;;5072775;28;20263;-65
2022/09/06 12:50:09;;;;;;;0.30;0.30;;;23.70;94.50;;;;;;5072385;28;20185;-65
2022/09/06 12:52:50;;;;;;;0.20;0.20;;;23.70;94.30;;;;;;5072667;28;20558;-65
2022/09/06 12:55:32;;;;;;;0.20;0.20;;;23.80;93.30;;;;;;5076225;28;20204;-66
2022/09/06 12:58:01;;;;;;;0.30;0.30;;;24.10;94.50;;;;;;5076238;28;20185;-65
2022/09/06 13:00:34;;;;;;;0.20;0.20;;;24.00;93.40;;;;;;5075850;28;20272;-65
2022/09/06 13:03:30;;;;;;;0.20;0.20;;;24.20;93.10;;;;;;5076052;28;20189;-65
2022/09/06 13:06:01;;;;;;;0.20;0.20;;;24.50;93.80;;;;;;5076108;28;20284;-65
2022/09/06 13:08:34;;;;;;;0.52;0.52;;;24.80;91.40;;;;;;5075683;28;20648;-65
2022/09/06 13:11:02;;;;;;;0.20;0.20;;;24.20;91.60;;;;;;5075924;28;20193;-65